sensor_id;sensor_type;location;lat;lon;timestamp;temperature;humidity
6102;DHT22;3081;50.584;7.032;2023-07-02T00:01:45;16.20;99.90
6102;DHT22;3081;50.584;7.032;2023-07-02T00:04:14;16.20;99.90
6102;DHT22;3081;50.584;7.032;2023-07-02T00:06:42;16.20;99.90
6102;DHT22;3081;50.584;7.032;2023-07-02T00:09:09;16.30;99.90
6102;DHT22;3081;50.584;7.032;2023-07-02T00:11:37;16.30;99.90
6102;DHT22;3081;50.584;7.032;2023-07-02T00:14:05;16.40;99.90
6102;DHT22;3081;50.584;7.032;2023-07-02T00:16:32;16.40;99.90
6102;DHT22;3081;50.584;7.032;2023-07-02T00:18:59;16.50;99.90
6102;DHT22;3081;50.584;7.032;2023-07-02T00:21:27;16.50;99.90
6102;DHT22;3081;50.584;7.032;2023-07-02T00:23:54;16.50;99.90
6102;DHT22;3081;50.584;7.032;2023-07-02T00:26:22;16.50;99.90
6102;DHT22;3081;50.584;7.032;2023-07-02T00:28:50;16.60;99.90
6102;DHT22;3081;50.584;7.032;2023-07-02T00:31:17;16.50;99.90
6102;DHT22;3081;50.584;7.032;2023-07-02T00:33:43;16.50;99.90
6102;DHT22;3081;50.584;7.032;2023-07-02T00:36:10;16.50;99.90
6102;DHT22;3081;50.584;7.032;2023-07-02T00:38:41;16.60;99.90
6102;DHT22;3081;50.584;7.032;2023-07-02T00:41:10;16.60;99.90
6102;DHT22;3081;50.584;7.032;2023-07-02T00:43:37;16.50;99.90
6102;DHT22;3081;50.584;7.032;2023-07-02T00:46:05;16.50;99.90
6102;DHT22;3081;50.584;7.032;2023-07-02T00:48:32;16.40;99.90
6102;DHT22;3081;50.584;7.032;2023-07-02T00:51:00;16.40;99.90
6102;DHT22;3081;50.584;7.032;2023-07-02T00:53:27;16.30;99.90
6102;DHT22;3081;50.584;7.032;2023-07-02T00:55:55;16.20;99.90
6102;DHT22;3081;50.584;7.032;2023-07-02T00:58:22;16.10;99.90
6102;DHT22;3081;50.584;7.032;2023-07-02T01:00:49;15.90;99.90
6102;DHT22;3081;50.584;7.032;2023-07-02T01:03:16;15.80;99.90
6102;DHT22;3081;50.584;7.032;2023-07-02T01:05:43;15.70;99.90
6102;DHT22;3081;50.584;7.032;2023-07-02T01:08:10;15.70;99.90
6102;DHT22;3081;50.584;7.032;2023-07-02T01:10:37;15.60;99.90
6102;DHT22;3081;50.584;7.032;2023-07-02T01:13:09;15.60;99.90
6102;DHT22;3081;50.584;7.032;2023-07-02T01:15:37;15.50;99.90
6102;DHT22;3081;50.584;7.032;2023-07-02T01:18:05;15.40;99.90
6102;DHT22;3081;50.584;7.032;2023-07-02T01:20:34;15.40;99.90
6102;DHT22;3081;50.584;7.032;2023-07-02T01:23:03;15.40;99.90
6102;DHT22;3081;50.584;7.032;2023-07-02T01:25:30;15.40;99.90
6102;DHT22;3081;50.584;7.032;2023-07-02T01:28:01;15.30;99.90
6102;DHT22;3081;50.584;7.032;2023-07-02T01:30:29;15.30;99.90
6102;DHT22;3081;50.584;7.032;2023-07-02T01:32:55;15.30;99.90
6102;DHT22;3081;50.584;7.032;2023-07-02T01:35:24;15.30;99.90
6102;DHT22;3081;50.584;7.032;2023-07-02T01:37:52;15.30;99.90
6102;DHT22;3081;50.584;7.032;2023-07-02T01:40:19;15.30;99.90
6102;DHT22;3081;50.584;7.032;2023-07-02T01:42:46;15.30;99.90
6102;DHT22;3081;50.584;7.032;2023-07-02T01:45:12;15.30;99.90
6102;DHT22;3081;50.584;7.032;2023-07-02T01:47:39;15.40;99.90
6102;DHT22;3081;50.584;7.032;2023-07-02T01:50:07;15.40;99.90
6102;DHT22;3081;50.584;7.032;2023-07-02T01:52:34;15.40;99.90
6102;DHT22;3081;50.584;7.032;2023-07-02T01:55:03;15.50;99.90
6102;DHT22;3081;50.584;7.032;2023-07-02T01:57:30;15.50;99.90
6102;DHT22;3081;50.584;7.032;2023-07-02T01:59:57;15.50;99.90
6102;DHT22;3081;50.584;7.032;2023-07-02T02:02:24;15.50;99.90
6102;DHT22;3081;50.584;7.032;2023-07-02T02:04:51;15.50;99.90
6102;DHT22;3081;50.584;7.032;2023-07-02T02:07:17;15.50;99.90
6102;DHT22;3081;50.584;7.032;2023-07-02T02:09:44;15.50;99.90
6102;DHT22;3081;50.584;7.032;2023-07-02T02:12:13;15.50;99.90
6102;DHT22;3081;50.584;7.032;2023-07-02T02:14:40;15.50;99.90
6102;DHT22;3081;50.584;7.032;2023-07-02T02:17:07;15.60;99.90
6102;DHT22;3081;50.584;7.032;2023-07-02T02:19:34;15.60;99.90
6102;DHT22;3081;50.584;7.032;2023-07-02T02:22:01;15.60;99.90
6102;DHT22;3081;50.584;7.032;2023-07-02T02:24:28;15.60;99.90
6102;DHT22;3081;50.584;7.032;2023-07-02T02:26:55;15.50;99.90
6102;DHT22;3081;50.584;7.032;2023-07-02T02:29:23;15.40;99.90
6102;DHT22;3081;50.584;7.032;2023-07-02T02:31:50;15.30;99.90
6102;DHT22;3081;50.584;7.032;2023-07-02T02:34:17;15.30;99.90
6102;DHT22;3081;50.584;7.032;2023-07-02T02:36:44;15.30;99.90
6102;DHT22;3081;50.584;7.032;2023-07-02T02:39:12;15.30;99.90
6102;DHT22;3081;50.584;7.032;2023-07-02T02:41:39;15.40;99.90
6102;DHT22;3081;50.584;7.032;2023-07-02T02:44:06;15.40;99.90
6102;DHT22;3081;50.584;7.032;2023-07-02T02:46:35;15.40;99.90
6102;DHT22;3081;50.584;7.032;2023-07-02T02:49:02;15.50;99.90
6102;DHT22;3081;50.584;7.032;2023-07-02T02:51:28;15.50;99.90
6102;DHT22;3081;50.584;7.032;2023-07-02T02:53:55;15.50;99.90
6102;DHT22;3081;50.584;7.032;2023-07-02T02:56:22;15.50;99.90
6102;DHT22;3081;50.584;7.032;2023-07-02T02:58:49;15.60;99.90
6102;DHT22;3081;50.584;7.032;2023-07-02T03:01:16;15.60;99.90
6102;DHT22;3081;50.584;7.032;2023-07-02T03:03:44;15.60;99.90
6102;DHT22;3081;50.584;7.032;2023-07-02T03:06:13;15.60;99.90
6102;DHT22;3081;50.584;7.032;2023-07-02T03:08:40;15.60;99.90
6102;DHT22;3081;50.584;7.032;2023-07-02T03:11:34;15.70;99.90
6102;DHT22;3081;50.584;7.032;2023-07-02T03:14:01;15.60;99.90
6102;DHT22;3081;50.584;7.032;2023-07-02T03:16:28;15.60;99.90
6102;DHT22;3081;50.584;7.032;2023-07-02T03:18:56;15.40;99.90
6102;DHT22;3081;50.584;7.032;2023-07-02T03:21:24;15.40;99.90
6102;DHT22;3081;50.584;7.032;2023-07-02T03:23:51;15.30;99.90
6102;DHT22;3081;50.584;7.032;2023-07-02T03:26:18;15.30;99.90
6102;DHT22;3081;50.584;7.032;2023-07-02T03:28:45;15.20;99.90
6102;DHT22;3081;50.584;7.032;2023-07-02T03:31:12;15.10;99.90
6102;DHT22;3081;50.584;7.032;2023-07-02T03:33:39;15.00;99.90
6102;DHT22;3081;50.584;7.032;2023-07-02T03:36:08;15.00;99.90
6102;DHT22;3081;50.584;7.032;2023-07-02T03:38:34;14.90;99.90
6102;DHT22;3081;50.584;7.032;2023-07-02T03:41:01;14.90;99.90
6102;DHT22;3081;50.584;7.032;2023-07-02T03:43:28;14.90;99.90
6102;DHT22;3081;50.584;7.032;2023-07-02T03:45:57;15.00;99.90
6102;DHT22;3081;50.584;7.032;2023-07-02T03:48:24;15.00;99.90
6102;DHT22;3081;50.584;7.032;2023-07-02T03:50:50;15.10;99.90
6102;DHT22;3081;50.584;7.032;2023-07-02T03:53:19;15.20;99.90
6102;DHT22;3081;50.584;7.032;2023-07-02T03:55:46;15.20;99.90
6102;DHT22;3081;50.584;7.032;2023-07-02T03:58:12;15.30;99.90
6102;DHT22;3081;50.584;7.032;2023-07-02T04:00:39;15.30;99.90
6102;DHT22;3081;50.584;7.032;2023-07-02T04:03:09;15.40;99.90
6102;DHT22;3081;50.584;7.032;2023-07-02T04:05:36;15.40;99.90
6102;DHT22;3081;50.584;7.032;2023-07-02T04:08:03;15.50;99.90
6102;DHT22;3081;50.584;7.032;2023-07-02T04:10:32;15.50;99.90
6102;DHT22;3081;50.584;7.032;2023-07-02T04:12:59;15.60;99.90
6102;DHT22;3081;50.584;7.032;2023-07-02T04:15:25;15.60;99.90
6102;DHT22;3081;50.584;7.032;2023-07-02T04:17:53;15.60;99.90
6102;DHT22;3081;50.584;7.032;2023-07-02T04:20:20;15.60;99.90
6102;DHT22;3081;50.584;7.032;2023-07-02T04:22:47;15.60;99.90
6102;DHT22;3081;50.584;7.032;2023-07-02T04:25:16;15.60;99.90
6102;DHT22;3081;50.584;7.032;2023-07-02T04:27:45;15.60;99.90
6102;DHT22;3081;50.584;7.032;2023-07-02T04:30:12;15.60;99.90
6102;DHT22;3081;50.584;7.032;2023-07-02T04:32:40;15.70;99.90
6102;DHT22;3081;50.584;7.032;2023-07-02T04:35:07;15.70;99.90
6102;DHT22;3081;50.584;7.032;2023-07-02T04:37:34;15.70;99.90
6102;DHT22;3081;50.584;7.032;2023-07-02T04:40:02;15.80;99.90
6102;DHT22;3081;50.584;7.032;2023-07-02T04:42:32;15.80;99.90
6102;DHT22;3081;50.584;7.032;2023-07-02T04:45:05;16.00;99.90
6102;DHT22;3081;50.584;7.032;2023-07-02T04:47:32;16.20;99.90
6102;DHT22;3081;50.584;7.032;2023-07-02T04:49:59;16.20;99.90
6102;DHT22;3081;50.584;7.032;2023-07-02T04:52:26;16.20;99.90
6102;DHT22;3081;50.584;7.032;2023-07-02T04:54:53;16.10;99.90
6102;DHT22;3081;50.584;7.032;2023-07-02T04:57:21;16.10;99.90
6102;DHT22;3081;50.584;7.032;2023-07-02T04:59:51;16.10;99.90
6102;DHT22;3081;50.584;7.032;2023-07-02T05:02:19;16.10;99.90
6102;DHT22;3081;50.584;7.032;2023-07-02T05:04:46;16.10;99.90
6102;DHT22;3081;50.584;7.032;2023-07-02T05:07:13;16.10;99.90
6102;DHT22;3081;50.584;7.032;2023-07-02T05:09:40;16.00;99.90
6102;DHT22;3081;50.584;7.032;2023-07-02T05:12:07;16.00;99.90
6102;DHT22;3081;50.584;7.032;2023-07-02T05:14:34;16.00;99.90
6102;DHT22;3081;50.584;7.032;2023-07-02T05:17:03;16.10;99.90
6102;DHT22;3081;50.584;7.032;2023-07-02T05:19:31;16.10;99.90
6102;DHT22;3081;50.584;7.032;2023-07-02T05:22:10;16.20;99.90
6102;DHT22;3081;50.584;7.032;2023-07-02T05:24:37;16.30;99.90
6102;DHT22;3081;50.584;7.032;2023-07-02T05:27:06;16.50;99.90
6102;DHT22;3081;50.584;7.032;2023-07-02T05:29:33;16.50;99.90
6102;DHT22;3081;50.584;7.032;2023-07-02T05:32:00;16.50;99.90
6102;DHT22;3081;50.584;7.032;2023-07-02T05:34:27;16.50;99.90
6102;DHT22;3081;50.584;7.032;2023-07-02T05:36:55;16.60;99.90
6102;DHT22;3081;50.584;7.032;2023-07-02T05:39:22;16.60;99.90
6102;DHT22;3081;50.584;7.032;2023-07-02T05:41:49;16.70;99.90
6102;DHT22;3081;50.584;7.032;2023-07-02T05:44:16;16.80;99.90
6102;DHT22;3081;50.584;7.032;2023-07-02T05:46:43;16.80;99.90
6102;DHT22;3081;50.584;7.032;2023-07-02T05:49:09;16.80;99.90
6102;DHT22;3081;50.584;7.032;2023-07-02T05:51:36;16.80;99.90
6102;DHT22;3081;50.584;7.032;2023-07-02T05:54:05;16.80;99.90
6102;DHT22;3081;50.584;7.032;2023-07-02T05:56:31;16.80;99.90
6102;DHT22;3081;50.584;7.032;2023-07-02T05:58:58;16.90;99.90
6102;DHT22;3081;50.584;7.032;2023-07-02T06:01:25;16.90;99.90
6102;DHT22;3081;50.584;7.032;2023-07-02T06:03:52;16.90;99.90
6102;DHT22;3081;50.584;7.032;2023-07-02T06:06:20;16.90;99.90
6102;DHT22;3081;50.584;7.032;2023-07-02T06:08:48;16.90;99.90
6102;DHT22;3081;50.584;7.032;2023-07-02T06:11:16;17.00;99.90
6102;DHT22;3081;50.584;7.032;2023-07-02T06:13:43;17.00;99.90
6102;DHT22;3081;50.584;7.032;2023-07-02T06:16:10;17.10;99.90
6102;DHT22;3081;50.584;7.032;2023-07-02T06:18:37;17.20;99.90
6102;DHT22;3081;50.584;7.032;2023-07-02T06:21:04;17.30;99.90
6102;DHT22;3081;50.584;7.032;2023-07-02T06:23:40;17.40;99.90
6102;DHT22;3081;50.584;7.032;2023-07-02T06:26:07;17.50;99.90
6102;DHT22;3081;50.584;7.032;2023-07-02T06:28:35;17.60;99.90
6102;DHT22;3081;50.584;7.032;2023-07-02T06:31:02;17.80;99.90
6102;DHT22;3081;50.584;7.032;2023-07-02T06:33:29;17.80;99.90
6102;DHT22;3081;50.584;7.032;2023-07-02T06:35:56;17.80;99.90
6102;DHT22;3081;50.584;7.032;2023-07-02T06:38:22;17.90;99.90
6102;DHT22;3081;50.584;7.032;2023-07-02T06:40:49;18.00;99.90
6102;DHT22;3081;50.584;7.032;2023-07-02T06:43:16;18.20;99.90
6102;DHT22;3081;50.584;7.032;2023-07-02T06:45:45;18.50;99.90
6102;DHT22;3081;50.584;7.032;2023-07-02T06:48:12;18.70;99.90
6102;DHT22;3081;50.584;7.032;2023-07-02T06:50:43;18.90;99.90
6102;DHT22;3081;50.584;7.032;2023-07-02T06:53:10;18.90;99.90
6102;DHT22;3081;50.584;7.032;2023-07-02T06:55:37;18.80;99.90
6102;DHT22;3081;50.584;7.032;2023-07-02T06:58:04;18.50;99.90
6102;DHT22;3081;50.584;7.032;2023-07-02T07:00:32;18.50;99.90
6102;DHT22;3081;50.584;7.032;2023-07-02T07:03:02;18.60;99.90
6102;DHT22;3081;50.584;7.032;2023-07-02T07:05:29;18.60;99.90
6102;DHT22;3081;50.584;7.032;2023-07-02T07:07:56;18.70;99.90
6102;DHT22;3081;50.584;7.032;2023-07-02T07:10:24;18.80;99.90
6102;DHT22;3081;50.584;7.032;2023-07-02T07:12:51;18.90;99.90
6102;DHT22;3081;50.584;7.032;2023-07-02T07:15:18;18.90;99.90
6102;DHT22;3081;50.584;7.032;2023-07-02T07:17:45;18.90;99.90
6102;DHT22;3081;50.584;7.032;2023-07-02T07:20:13;18.80;99.90
6102;DHT22;3081;50.584;7.032;2023-07-02T07:22:40;18.80;99.90
6102;DHT22;3081;50.584;7.032;2023-07-02T07:25:08;18.80;99.90
6102;DHT22;3081;50.584;7.032;2023-07-02T07:27:35;19.10;99.90
6102;DHT22;3081;50.584;7.032;2023-07-02T07:30:02;19.40;99.90
6102;DHT22;3081;50.584;7.032;2023-07-02T07:32:29;19.50;99.90
6102;DHT22;3081;50.584;7.032;2023-07-02T07:34:56;19.60;99.90
6102;DHT22;3081;50.584;7.032;2023-07-02T07:37:24;19.50;99.90
6102;DHT22;3081;50.584;7.032;2023-07-02T07:39:51;19.60;99.90
6102;DHT22;3081;50.584;7.032;2023-07-02T07:42:18;19.80;99.90
6102;DHT22;3081;50.584;7.032;2023-07-02T07:44:45;20.10;99.90
6102;DHT22;3081;50.584;7.032;2023-07-02T07:47:13;20.10;99.90
6102;DHT22;3081;50.584;7.032;2023-07-02T07:49:40;20.10;99.90
6102;DHT22;3081;50.584;7.032;2023-07-02T07:52:07;20.20;99.90
6102;DHT22;3081;50.584;7.032;2023-07-02T07:54:35;20.10;99.90
6102;DHT22;3081;50.584;7.032;2023-07-02T07:57:03;19.90;99.90
6102;DHT22;3081;50.584;7.032;2023-07-02T07:59:30;19.60;99.90
6102;DHT22;3081;50.584;7.032;2023-07-02T08:01:57;19.50;99.90
6102;DHT22;3081;50.584;7.032;2023-07-02T08:04:24;19.60;99.90
6102;DHT22;3081;50.584;7.032;2023-07-02T08:06:51;19.70;99.90
6102;DHT22;3081;50.584;7.032;2023-07-02T08:09:18;19.90;99.90
6102;DHT22;3081;50.584;7.032;2023-07-02T08:11:46;20.10;99.90
6102;DHT22;3081;50.584;7.032;2023-07-02T08:14:13;20.50;99.90
6102;DHT22;3081;50.584;7.032;2023-07-02T08:16:40;20.70;99.90
6102;DHT22;3081;50.584;7.032;2023-07-02T08:19:07;20.70;99.90
6102;DHT22;3081;50.584;7.032;2023-07-02T08:21:34;20.90;99.90
6102;DHT22;3081;50.584;7.032;2023-07-02T08:24:00;21.10;99.90
6102;DHT22;3081;50.584;7.032;2023-07-02T08:26:27;21.10;99.90
6102;DHT22;3081;50.584;7.032;2023-07-02T08:28:56;21.10;99.90
6102;DHT22;3081;50.584;7.032;2023-07-02T08:31:23;21.10;99.90
6102;DHT22;3081;50.584;7.032;2023-07-02T08:33:50;21.20;99.90
6102;DHT22;3081;50.584;7.032;2023-07-02T08:36:17;21.40;99.90
6102;DHT22;3081;50.584;7.032;2023-07-02T08:38:44;21.60;99.90
6102;DHT22;3081;50.584;7.032;2023-07-02T08:41:12;21.80;99.90
6102;DHT22;3081;50.584;7.032;2023-07-02T08:43:39;21.80;99.90
6102;DHT22;3081;50.584;7.032;2023-07-02T08:46:08;21.50;99.90
6102;DHT22;3081;50.584;7.032;2023-07-02T08:48:36;21.40;99.90
6102;DHT22;3081;50.584;7.032;2023-07-02T08:51:03;21.40;99.90
6102;DHT22;3081;50.584;7.032;2023-07-02T08:53:30;21.30;99.90
6102;DHT22;3081;50.584;7.032;2023-07-02T08:55:59;21.20;99.90
6102;DHT22;3081;50.584;7.032;2023-07-02T08:58:26;21.20;99.90
6102;DHT22;3081;50.584;7.032;2023-07-02T09:01:08;21.30;99.90
6102;DHT22;3081;50.584;7.032;2023-07-02T09:03:36;21.30;99.90
6102;DHT22;3081;50.584;7.032;2023-07-02T09:06:04;21.20;99.90
6102;DHT22;3081;50.584;7.032;2023-07-02T09:08:31;21.10;99.90
6102;DHT22;3081;50.584;7.032;2023-07-02T09:11:09;20.90;99.90
6102;DHT22;3081;50.584;7.032;2023-07-02T09:13:46;21.00;99.90
6102;DHT22;3081;50.584;7.032;2023-07-02T09:16:25;21.20;99.90
6102;DHT22;3081;50.584;7.032;2023-07-02T09:19:00;21.40;99.90
6102;DHT22;3081;50.584;7.032;2023-07-02T09:21:27;21.50;99.90
6102;DHT22;3081;50.584;7.032;2023-07-02T09:23:55;21.60;99.90
6102;DHT22;3081;50.584;7.032;2023-07-02T09:26:22;21.70;99.90
6102;DHT22;3081;50.584;7.032;2023-07-02T09:28:50;21.80;99.90
6102;DHT22;3081;50.584;7.032;2023-07-02T09:31:17;21.90;99.90
6102;DHT22;3081;50.584;7.032;2023-07-02T09:33:45;21.90;99.90
6102;DHT22;3081;50.584;7.032;2023-07-02T09:36:12;22.10;99.90
6102;DHT22;3081;50.584;7.032;2023-07-02T09:38:39;22.30;99.90
6102;DHT22;3081;50.584;7.032;2023-07-02T09:41:07;22.30;99.90
6102;DHT22;3081;50.584;7.032;2023-07-02T09:43:34;22.30;99.90
6102;DHT22;3081;50.584;7.032;2023-07-02T09:46:01;22.40;99.90
6102;DHT22;3081;50.584;7.032;2023-07-02T09:48:32;22.60;99.90
6102;DHT22;3081;50.584;7.032;2023-07-02T09:51:03;22.60;99.90
6102;DHT22;3081;50.584;7.032;2023-07-02T09:53:31;22.60;99.90
6102;DHT22;3081;50.584;7.032;2023-07-02T09:55:58;22.40;99.90
6102;DHT22;3081;50.584;7.032;2023-07-02T09:58:25;22.10;99.90
6102;DHT22;3081;50.584;7.032;2023-07-02T10:00:52;21.90;99.90
6102;DHT22;3081;50.584;7.032;2023-07-02T10:03:28;21.90;99.90
6102;DHT22;3081;50.584;7.032;2023-07-02T10:06:04;21.90;99.90
6102;DHT22;3081;50.584;7.032;2023-07-02T10:08:32;22.10;99.90
6102;DHT22;3081;50.584;7.032;2023-07-02T10:11:09;22.30;99.90
6102;DHT22;3081;50.584;7.032;2023-07-02T10:13:37;22.30;99.90
6102;DHT22;3081;50.584;7.032;2023-07-02T10:16:06;22.30;99.90
6102;DHT22;3081;50.584;7.032;2023-07-02T10:18:33;22.20;99.90
6102;DHT22;3081;50.584;7.032;2023-07-02T10:20:59;22.10;99.90
6102;DHT22;3081;50.584;7.032;2023-07-02T10:23:35;21.90;99.90
6102;DHT22;3081;50.584;7.032;2023-07-02T10:26:14;21.70;99.90
6102;DHT22;3081;50.584;7.032;2023-07-02T10:28:42;21.90;99.90
6102;DHT22;3081;50.584;7.032;2023-07-02T10:31:19;22.00;99.90
6102;DHT22;3081;50.584;7.032;2023-07-02T10:33:46;22.30;99.90
6102;DHT22;3081;50.584;7.032;2023-07-02T10:36:20;22.90;99.90
6102;DHT22;3081;50.584;7.032;2023-07-02T10:38:50;23.70;99.90
6102;DHT22;3081;50.584;7.032;2023-07-02T10:41:24;24.10;99.90
6102;DHT22;3081;50.584;7.032;2023-07-02T10:43:51;24.30;99.90
6102;DHT22;3081;50.584;7.032;2023-07-02T10:46:19;24.30;99.90
6102;DHT22;3081;50.584;7.032;2023-07-02T10:48:51;24.10;99.90
6102;DHT22;3081;50.584;7.032;2023-07-02T10:51:18;23.60;99.90
6102;DHT22;3081;50.584;7.032;2023-07-02T10:53:55;23.30;99.90
6102;DHT22;3081;50.584;7.032;2023-07-02T10:56:22;23.20;99.90
6102;DHT22;3081;50.584;7.032;2023-07-02T10:58:49;23.40;99.90
6102;DHT22;3081;50.584;7.032;2023-07-02T11:01:22;24.30;99.90
6102;DHT22;3081;50.584;7.032;2023-07-02T11:03:56;25.00;99.90
6102;DHT22;3081;50.584;7.032;2023-07-02T11:06:22;25.50;99.90
6102;DHT22;3081;50.584;7.032;2023-07-02T11:08:49;26.00;99.90
6102;DHT22;3081;50.584;7.032;2023-07-02T11:11:18;26.00;99.90
6102;DHT22;3081;50.584;7.032;2023-07-02T11:13:45;25.50;99.90
6102;DHT22;3081;50.584;7.032;2023-07-02T11:16:23;24.40;99.90
6102;DHT22;3081;50.584;7.032;2023-07-02T11:18:52;23.30;99.90
6102;DHT22;3081;50.584;7.032;2023-07-02T11:21:19;22.60;99.90
6102;DHT22;3081;50.584;7.032;2023-07-02T11:23:46;22.30;99.90
6102;DHT22;3081;50.584;7.032;2023-07-02T11:26:13;22.30;99.90
6102;DHT22;3081;50.584;7.032;2023-07-02T11:28:51;22.30;99.90
6102;DHT22;3081;50.584;7.032;2023-07-02T11:31:27;22.40;99.90
6102;DHT22;3081;50.584;7.032;2023-07-02T11:33:54;22.40;99.90
6102;DHT22;3081;50.584;7.032;2023-07-02T11:36:22;22.60;99.90
6102;DHT22;3081;50.584;7.032;2023-07-02T11:38:50;23.20;99.90
6102;DHT22;3081;50.584;7.032;2023-07-02T11:41:19;24.10;99.90
6102;DHT22;3081;50.584;7.032;2023-07-02T11:43:46;25.60;99.90
6102;DHT22;3081;50.584;7.032;2023-07-02T11:46:15;26.90;99.90
6102;DHT22;3081;50.584;7.032;2023-07-02T11:48:42;26.90;99.00
6102;DHT22;3081;50.584;7.032;2023-07-02T11:51:09;26.30;99.90
6102;DHT22;3081;50.584;7.032;2023-07-02T11:53:36;25.80;99.90
6102;DHT22;3081;50.584;7.032;2023-07-02T11:56:03;25.30;99.90
6102;DHT22;3081;50.584;7.032;2023-07-02T11:58:29;24.90;99.90
6102;DHT22;3081;50.584;7.032;2023-07-02T12:00:56;24.50;99.90
6102;DHT22;3081;50.584;7.032;2023-07-02T12:03:25;24.40;99.90
6102;DHT22;3081;50.584;7.032;2023-07-02T12:05:52;24.10;99.90
6102;DHT22;3081;50.584;7.032;2023-07-02T12:08:19;24.20;99.90
6102;DHT22;3081;50.584;7.032;2023-07-02T12:10:45;24.40;99.90
6102;DHT22;3081;50.584;7.032;2023-07-02T12:13:12;24.70;99.90
6102;DHT22;3081;50.584;7.032;2023-07-02T12:15:39;24.70;99.90
6102;DHT22;3081;50.584;7.032;2023-07-02T12:18:07;24.40;99.90
6102;DHT22;3081;50.584;7.032;2023-07-02T12:20:36;24.00;99.90
6102;DHT22;3081;50.584;7.032;2023-07-02T12:23:03;23.70;99.20
6102;DHT22;3081;50.584;7.032;2023-07-02T12:25:31;23.20;99.90
6102;DHT22;3081;50.584;7.032;2023-07-02T12:27:58;23.10;99.90
6102;DHT22;3081;50.584;7.032;2023-07-02T12:30:25;23.10;99.90
6102;DHT22;3081;50.584;7.032;2023-07-02T12:32:52;23.40;99.90
6102;DHT22;3081;50.584;7.032;2023-07-02T12:35:18;23.70;99.90
6102;DHT22;3081;50.584;7.032;2023-07-02T12:37:48;24.80;99.50
6102;DHT22;3081;50.584;7.032;2023-07-02T12:40:15;25.90;97.80
6102;DHT22;3081;50.584;7.032;2023-07-02T12:42:43;26.80;97.90
6102;DHT22;3081;50.584;7.032;2023-07-02T12:45:11;26.80;95.30
6102;DHT22;3081;50.584;7.032;2023-07-02T12:47:39;27.30;95.50
6102;DHT22;3081;50.584;7.032;2023-07-02T12:50:07;27.00;93.70
6102;DHT22;3081;50.584;7.032;2023-07-02T12:52:34;26.20;94.40
6102;DHT22;3081;50.584;7.032;2023-07-02T12:55:03;25.80;94.60
6102;DHT22;3081;50.584;7.032;2023-07-02T12:57:30;25.60;95.30
6102;DHT22;3081;50.584;7.032;2023-07-02T12:59:57;26.30;95.30
6102;DHT22;3081;50.584;7.032;2023-07-02T13:02:24;26.50;93.10
6102;DHT22;3081;50.584;7.032;2023-07-02T13:04:51;26.20;92.40
6102;DHT22;3081;50.584;7.032;2023-07-02T13:07:18;25.80;92.50
6102;DHT22;3081;50.584;7.032;2023-07-02T13:09:45;26.20;93.30
6102;DHT22;3081;50.584;7.032;2023-07-02T13:12:13;26.90;91.40
6102;DHT22;3081;50.584;7.032;2023-07-02T13:14:40;27.20;90.40
6102;DHT22;3081;50.584;7.032;2023-07-02T13:17:07;27.60;89.30
6102;DHT22;3081;50.584;7.032;2023-07-02T13:19:34;28.80;87.70
6102;DHT22;3081;50.584;7.032;2023-07-02T13:22:01;29.30;84.10
6102;DHT22;3081;50.584;7.032;2023-07-02T13:24:32;28.60;84.10
6102;DHT22;3081;50.584;7.032;2023-07-02T13:27:02;27.80;90.00
6102;DHT22;3081;50.584;7.032;2023-07-02T13:29:30;27.20;90.50
6102;DHT22;3081;50.584;7.032;2023-07-02T13:31:57;26.60;92.20
6102;DHT22;3081;50.584;7.032;2023-07-02T13:34:24;26.90;92.70
6102;DHT22;3081;50.584;7.032;2023-07-02T13:36:51;27.40;91.20
6102;DHT22;3081;50.584;7.032;2023-07-02T13:39:18;28.20;90.90
6102;DHT22;3081;50.584;7.032;2023-07-02T13:41:45;29.30;87.80
6102;DHT22;3081;50.584;7.032;2023-07-02T13:44:12;29.90;86.60
6102;DHT22;3081;50.584;7.032;2023-07-02T13:46:40;29.40;83.00
6102;DHT22;3081;50.584;7.032;2023-07-02T13:49:08;28.60;85.40
6102;DHT22;3081;50.584;7.032;2023-07-02T13:51:36;28.50;88.00
6102;DHT22;3081;50.584;7.032;2023-07-02T13:54:03;28.40;84.10
6102;DHT22;3081;50.584;7.032;2023-07-02T13:56:30;28.60;83.90
6102;DHT22;3081;50.584;7.032;2023-07-02T13:59:03;30.10;81.10
6102;DHT22;3081;50.584;7.032;2023-07-02T14:01:30;30.10;81.10
6102;DHT22;3081;50.584;7.032;2023-07-02T14:03:57;29.30;80.00
6102;DHT22;3081;50.584;7.032;2023-07-02T14:06:24;28.80;82.00
6102;DHT22;3081;50.584;7.032;2023-07-02T14:08:52;30.10;81.20
6102;DHT22;3081;50.584;7.032;2023-07-02T14:11:20;29.70;79.30
6102;DHT22;3081;50.584;7.032;2023-07-02T14:13:47;28.90;78.20
6102;DHT22;3081;50.584;7.032;2023-07-02T14:16:15;27.70;80.20
6102;DHT22;3081;50.584;7.032;2023-07-02T14:18:43;26.80;83.20
6102;DHT22;3081;50.584;7.032;2023-07-02T14:21:10;27.20;84.80
6102;DHT22;3081;50.584;7.032;2023-07-02T14:23:36;29.50;81.00
6102;DHT22;3081;50.584;7.032;2023-07-02T14:26:03;30.00;75.60
6102;DHT22;3081;50.584;7.032;2023-07-02T14:28:30;29.20;75.70
6102;DHT22;3081;50.584;7.032;2023-07-02T14:30:57;28.60;77.10
6102;DHT22;3081;50.584;7.032;2023-07-02T14:33:26;30.10;76.60
6102;DHT22;3081;50.584;7.032;2023-07-02T14:35:54;30.90;72.90
6102;DHT22;3081;50.584;7.032;2023-07-02T14:38:21;31.00;72.20
6102;DHT22;3081;50.584;7.032;2023-07-02T14:40:48;32.20;69.10
6102;DHT22;3081;50.584;7.032;2023-07-02T14:43:15;31.50;68.30
6102;DHT22;3081;50.584;7.032;2023-07-02T14:45:45;32.80;66.20
6102;DHT22;3081;50.584;7.032;2023-07-02T14:48:13;33.70;63.60
6102;DHT22;3081;50.584;7.032;2023-07-02T14:50:47;34.70;62.40
6102;DHT22;3081;50.584;7.032;2023-07-02T14:53:14;35.20;60.80
6102;DHT22;3081;50.584;7.032;2023-07-02T14:55:41;34.00;59.50
6102;DHT22;3081;50.584;7.032;2023-07-02T14:58:09;33.70;61.90
6102;DHT22;3081;50.584;7.032;2023-07-02T15:00:43;35.10;59.80
6102;DHT22;3081;50.584;7.032;2023-07-02T15:03:10;34.20;58.80
6102;DHT22;3081;50.584;7.032;2023-07-02T15:05:37;33.50;59.90
6102;DHT22;3081;50.584;7.032;2023-07-02T15:08:05;33.10;59.70
6102;DHT22;3081;50.584;7.032;2023-07-02T15:10:33;32.40;60.60
6102;DHT22;3081;50.584;7.032;2023-07-02T15:13:00;31.20;61.50
6102;DHT22;3081;50.584;7.032;2023-07-02T15:15:27;29.70;64.40
6102;DHT22;3081;50.584;7.032;2023-07-02T15:17:54;29.40;66.20
6102;DHT22;3081;50.584;7.032;2023-07-02T15:20:21;32.30;64.30
6102;DHT22;3081;50.584;7.032;2023-07-02T15:22:48;33.30;58.60
6102;DHT22;3081;50.584;7.032;2023-07-02T15:25:16;31.80;59.70
6102;DHT22;3081;50.584;7.032;2023-07-02T15:27:43;32.90;61.20
6102;DHT22;3081;50.584;7.032;2023-07-02T15:30:11;35.70;58.60
6102;DHT22;3081;50.584;7.032;2023-07-02T15:32:38;37.40;54.70
6102;DHT22;3081;50.584;7.032;2023-07-02T15:35:05;35.60;53.60
6102;DHT22;3081;50.584;7.032;2023-07-02T15:37:32;33.20;56.70
6102;DHT22;3081;50.584;7.032;2023-07-02T15:39:59;31.50;58.80
6102;DHT22;3081;50.584;7.032;2023-07-02T15:42:27;31.20;61.10
6102;DHT22;3081;50.584;7.032;2023-07-02T15:44:55;32.20;58.30
6102;DHT22;3081;50.584;7.032;2023-07-02T15:47:22;32.10;58.10
6102;DHT22;3081;50.584;7.032;2023-07-02T15:49:50;33.40;55.40
6102;DHT22;3081;50.584;7.032;2023-07-02T15:52:17;35.00;55.10
6102;DHT22;3081;50.584;7.032;2023-07-02T15:54:44;36.40;52.70
6102;DHT22;3081;50.584;7.032;2023-07-02T15:57:11;37.40;51.00
6102;DHT22;3081;50.584;7.032;2023-07-02T15:59:39;34.90;51.40
6102;DHT22;3081;50.584;7.032;2023-07-02T16:02:06;33.40;54.20
6102;DHT22;3081;50.584;7.032;2023-07-02T16:04:34;33.00;54.60
6102;DHT22;3081;50.584;7.032;2023-07-02T16:07:01;31.50;55.90